sensor_id;sensor_type;location;lat;lon;timestamp;P1;durP1;ratioP1;P2;durP2;ratioP2
47796;SDS011;33558;50.922;14.068;2023-07-24T09:21:44;9.57;;;5.20;;
47796;SDS011;33558;50.922;14.068;2023-07-24T09:24:29;10.27;;;5.07;;
47796;SDS011;33558;50.922;14.068;2023-07-24T09:27:14;7.53;;;4.53;;
47796;SDS011;33558;50.922;14.068;2023-07-24T09:37:02;9.93;;;4.60;;
47796;SDS011;33558;50.922;14.068;2023-07-24T09:39:29;8.90;;;5.18;;
47796;SDS011;33558;50.922;14.068;2023-07-24T09:42:02;6.30;;;4.45;;
47796;SDS011;33558;50.922;14.068;2023-07-24T09:44:30;6.78;;;4.38;;
47796;SDS011;33558;50.922;14.068;2023-07-24T10:15:55;8.90;;;5.10;;
47796;SDS011;33558;50.922;14.068;2023-07-24T10:56:02;8.43;;;5.65;;
47796;SDS011;33558;50.922;14.068;2023-07-24T10:58:37;8.55;;;5.97;;
47796;SDS011;33558;50.922;14.068;2023-07-24T11:12:38;6.60;;;5.30;;
47796;SDS011;33558;50.922;14.068;2023-07-24T11:27:42;7.03;;;5.47;;
47796;SDS011;33558;50.922;14.068;2023-07-24T11:31:07;6.65;;;5.18;;
47796;SDS011;33558;50.922;14.068;2023-07-24T11:33:51;7.43;;;5.13;;
47796;SDS011;33558;50.922;14.068;2023-07-24T12:04:19;10.82;;;6.80;;
47796;SDS011;33558;50.922;14.068;2023-07-24T12:06:46;7.70;;;5.88;;
47796;SDS011;33558;50.922;14.068;2023-07-24T12:09:13;9.75;;;6.75;;
47796;SDS011;33558;50.922;14.068;2023-07-24T12:11:40;10.32;;;6.13;;
47796;SDS011;33558;50.922;14.068;2023-07-24T12:14:07;8.70;;;6.40;;
47796;SDS011;33558;50.922;14.068;2023-07-24T12:16:34;11.60;;;7.57;;
47796;SDS011;33558;50.922;14.068;2023-07-24T12:19:01;8.10;;;6.47;;
47796;SDS011;33558;50.922;14.068;2023-07-24T12:21:29;11.27;;;6.60;;
47796;SDS011;33558;50.922;14.068;2023-07-24T12:23:56;9.48;;;6.75;;
47796;SDS011;33558;50.922;14.068;2023-07-24T12:26:22;12.57;;;7.13;;
47796;SDS011;33558;50.922;14.068;2023-07-24T12:28:50;8.98;;;6.35;;
47796;SDS011;33558;50.922;14.068;2023-07-24T12:31:17;8.20;;;5.95;;
47796;SDS011;33558;50.922;14.068;2023-07-24T12:33:43;9.10;;;6.40;;
47796;SDS011;33558;50.922;14.068;2023-07-24T12:36:12;8.55;;;6.45;;
47796;SDS011;33558;50.922;14.068;2023-07-24T12:38:40;10.38;;;6.57;;
47796;SDS011;33558;50.922;14.068;2023-07-24T12:41:07;10.05;;;6.75;;
47796;SDS011;33558;50.922;14.068;2023-07-24T12:43:34;9.50;;;6.47;;
47796;SDS011;33558;50.922;14.068;2023-07-24T12:46:00;9.05;;;6.40;;
47796;SDS011;33558;50.922;14.068;2023-07-24T12:48:27;12.18;;;6.72;;
47796;SDS011;33558;50.922;14.068;2023-07-24T12:50:56;9.43;;;6.93;;
47796;SDS011;33558;50.922;14.068;2023-07-24T12:53:25;13.82;;;7.25;;
47796;SDS011;33558;50.922;14.068;2023-07-24T12:55:53;9.18;;;6.57;;
47796;SDS011;33558;50.922;14.068;2023-07-24T12:58:19;8.70;;;6.85;;
47796;SDS011;33558;50.922;14.068;2023-07-24T13:00:46;8.32;;;6.05;;
47796;SDS011;33558;50.922;14.068;2023-07-24T13:03:13;7.78;;;5.97;;
47796;SDS011;33558;50.922;14.068;2023-07-24T13:05:40;8.43;;;6.35;;
47796;SDS011;33558;50.922;14.068;2023-07-24T13:08:07;9.98;;;7.10;;
47796;SDS011;33558;50.922;14.068;2023-07-24T13:10:33;10.07;;;7.38;;
47796;SDS011;33558;50.922;14.068;2023-07-24T13:13:01;9.10;;;6.63;;
47796;SDS011;33558;50.922;14.068;2023-07-24T13:15:28;10.27;;;7.55;;
47796;SDS011;33558;50.922;14.068;2023-07-24T13:17:57;15.32;;;7.78;;
47796;SDS011;33558;50.922;14.068;2023-07-24T13:20:24;10.85;;;7.40;;
47796;SDS011;33558;50.922;14.068;2023-07-24T13:22:51;10.68;;;7.53;;
47796;SDS011;33558;50.922;14.068;2023-07-24T13:25:17;11.60;;;6.95;;
47796;SDS011;33558;50.922;14.068;2023-07-24T13:27:44;8.63;;;6.78;;
47796;SDS011;33558;50.922;14.068;2023-07-24T13:30:12;7.82;;;6.68;;
47796;SDS011;33558;50.922;14.068;2023-07-24T13:32:39;9.00;;;6.72;;
47796;SDS011;33558;50.922;14.068;2023-07-24T13:35:06;8.93;;;6.15;;
47796;SDS011;33558;50.922;14.068;2023-07-24T13:37:33;9.57;;;5.90;;
47796;SDS011;33558;50.922;14.068;2023-07-24T13:40:00;8.52;;;6.20;;
47796;SDS011;33558;50.922;14.068;2023-07-24T13:42:27;7.18;;;5.60;;
47796;SDS011;33558;50.922;14.068;2023-07-24T13:44:54;8.00;;;5.20;;
47796;SDS011;33558;50.922;14.068;2023-07-24T13:47:22;7.85;;;5.97;;
47796;SDS011;33558;50.922;14.068;2023-07-24T13:49:48;7.28;;;6.07;;
47796;SDS011;33558;50.922;14.068;2023-07-24T13:52:15;6.18;;;5.43;;
47796;SDS011;33558;50.922;14.068;2023-07-24T13:54:42;9.60;;;6.00;;
47796;SDS011;33558;50.922;14.068;2023-07-24T13:57:09;9.48;;;6.85;;
47796;SDS011;33558;50.922;14.068;2023-07-24T13:59:36;7.45;;;5.53;;
47796;SDS011;33558;50.922;14.068;2023-07-24T14:02:04;7.90;;;5.68;;
47796;SDS011;33558;50.922;14.068;2023-07-24T14:04:33;7.50;;;5.88;;
47796;SDS011;33558;50.922;14.068;2023-07-24T14:06:59;7.88;;;5.63;;
47796;SDS011;33558;50.922;14.068;2023-07-24T14:09:26;7.50;;;6.00;;
47796;SDS011;33558;50.922;14.068;2023-07-24T14:11:53;7.85;;;5.72;;
47796;SDS011;33558;50.922;14.068;2023-07-24T14:14:20;9.43;;;5.35;;
47796;SDS011;33558;50.922;14.068;2023-07-24T14:16:48;6.40;;;5.05;;
47796;SDS011;33558;50.922;14.068;2023-07-24T14:19:15;8.73;;;5.30;;
47796;SDS011;33558;50.922;14.068;2023-07-24T14:21:44;8.35;;;5.07;;
47796;SDS011;33558;50.922;14.068;2023-07-24T14:24:10;6.75;;;5.20;;
47796;SDS011;33558;50.922;14.068;2023-07-24T14:26:38;5.95;;;4.65;;
47796;SDS011;33558;50.922;14.068;2023-07-24T14:29:05;6.85;;;5.35;;
47796;SDS011;33558;50.922;14.068;2023-07-24T14:31:32;6.05;;;4.68;;
47796;SDS011;33558;50.922;14.068;2023-07-24T14:33:58;6.85;;;4.57;;
47796;SDS011;33558;50.922;14.068;2023-07-24T14:36:25;5.13;;;4.38;;
47796;SDS011;33558;50.922;14.068;2023-07-24T14:39:00;7.20;;;4.60;;
47796;SDS011;33558;50.922;14.068;2023-07-24T14:41:26;5.97;;;4.45;;
47796;SDS011;33558;50.922;14.068;2023-07-24T14:43:54;6.07;;;4.70;;
47796;SDS011;33558;50.922;14.068;2023-07-24T14:46:24;6.03;;;4.72;;
47796;SDS011;33558;50.922;14.068;2023-07-24T14:48:51;5.78;;;4.55;;
47796;SDS011;33558;50.922;14.068;2023-07-24T14:51:17;5.53;;;4.63;;
47796;SDS011;33558;50.922;14.068;2023-07-24T14:53:44;5.97;;;5.25;;
47796;SDS011;33558;50.922;14.068;2023-07-24T14:56:12;6.53;;;5.45;;
47796;SDS011;33558;50.922;14.068;2023-07-24T14:58:39;5.68;;;4.47;;
47796;SDS011;33558;50.922;14.068;2023-07-24T15:01:07;5.60;;;4.72;;
47796;SDS011;33558;50.922;14.068;2023-07-24T15:03:34;5.93;;;5.13;;
47796;SDS011;33558;50.922;14.068;2023-07-24T15:06:00;5.60;;;4.47;;
47796;SDS011;33558;50.922;14.068;2023-07-24T15:08:30;5.95;;;4.70;;
47796;SDS011;33558;50.922;14.068;2023-07-24T15:10:57;5.18;;;4.43;;
47796;SDS011;33558;50.922;14.068;2023-07-24T15:13:25;5.25;;;4.70;;
47796;SDS011;33558;50.922;14.068;2023-07-24T15:15:51;6.57;;;4.28;;
47796;SDS011;33558;50.922;14.068;2023-07-24T15:18:18;5.53;;;4.70;;
47796;SDS011;33558;50.922;14.068;2023-07-24T15:20:45;5.13;;;4.32;;
47796;SDS011;33558;50.922;14.068;2023-07-24T15:23:12;4.97;;;4.20;;
47796;SDS011;33558;50.922;14.068;2023-07-24T15:25:39;5.47;;;4.45;;
47796;SDS011;33558;50.922;14.068;2023-07-24T15:28:06;6.13;;;4.75;;
47796;SDS011;33558;50.922;14.068;2023-07-24T15:30:39;5.35;;;4.85;;
47796;SDS011;33558;50.922;14.068;2023-07-24T15:33:05;6.82;;;4.25;;
47796;SDS011;33558;50.922;14.068;2023-07-24T15:35:32;5.65;;;5.00;;
47796;SDS011;33558;50.922;14.068;2023-07-24T15:37:59;6.97;;;4.80;;
47796;SDS011;33558;50.922;14.068;2023-07-24T15:40:28;7.72;;;5.20;;
47796;SDS011;33558;50.922;14.068;2023-07-24T15:42:55;6.43;;;5.07;;
47796;SDS011;33558;50.922;14.068;2023-07-24T15:45:21;6.93;;;4.80;;
47796;SDS011;33558;50.922;14.068;2023-07-24T15:47:49;7.63;;;5.28;;
47796;SDS011;33558;50.922;14.068;2023-07-24T15:50:16;8.05;;;5.82;;
47796;SDS011;33558;50.922;14.068;2023-07-24T15:52:43;7.90;;;5.97;;
47796;SDS011;33558;50.922;14.068;2023-07-24T15:55:10;7.85;;;6.32;;
47796;SDS011;33558;50.922;14.068;2023-07-24T15:57:37;7.30;;;5.97;;
47796;SDS011;33558;50.922;14.068;2023-07-24T16:00:04;7.68;;;6.25;;
47796;SDS011;33558;50.922;14.068;2023-07-24T16:02:37;7.78;;;5.82;;
47796;SDS011;33558;50.922;14.068;2023-07-24T16:05:09;6.60;;;5.85;;
47796;SDS011;33558;50.922;14.068;2023-07-24T16:07:42;7.45;;;5.40;;
47796;SDS011;33558;50.922;14.068;2023-07-24T16:10:09;7.43;;;6.40;;
47796;SDS011;33558;50.922;14.068;2023-07-24T16:12:38;6.97;;;6.00;;
47796;SDS011;33558;50.922;14.068;2023-07-24T16:15:05;7.88;;;6.30;;
47796;SDS011;33558;50.922;14.068;2023-07-24T16:17:34;12.27;;;6.18;;
47796;SDS011;33558;50.922;14.068;2023-07-24T16:20:01;7.50;;;5.97;;
47796;SDS011;33558;50.922;14.068;2023-07-24T16:22:31;8.30;;;6.30;;
47796;SDS011;33558;50.922;14.068;2023-07-24T16:24:59;8.93;;;6.20;;
47796;SDS011;33558;50.922;14.068;2023-07-24T16:27:26;7.47;;;6.35;;
47796;SDS011;33558;50.922;14.068;2023-07-24T16:29:53;8.85;;;6.80;;
47796;SDS011;33558;50.922;14.068;2023-07-24T16:32:25;7.85;;;6.50;;
47796;SDS011;33558;50.922;14.068;2023-07-24T16:34:52;7.22;;;6.53;;
47796;SDS011;33558;50.922;14.068;2023-07-24T16:37:18;9.07;;;8.18;;
47796;SDS011;33558;50.922;14.068;2023-07-24T16:39:46;7.15;;;5.68;;
47796;SDS011;33558;50.922;14.068;2023-07-24T16:42:13;7.90;;;6.20;;
47796;SDS011;33558;50.922;14.068;2023-07-24T16:44:40;8.07;;;6.38;;
47796;SDS011;33558;50.922;14.068;2023-07-24T16:47:07;7.57;;;6.55;;
47796;SDS011;33558;50.922;14.068;2023-07-24T16:49:35;8.88;;;6.40;;
47796;SDS011;33558;50.922;14.068;2023-07-24T16:52:03;11.57;;;6.50;;
47796;SDS011;33558;50.922;14.068;2023-07-24T16:54:31;6.97;;;6.18;;
47796;SDS011;33558;50.922;14.068;2023-07-24T16:57:00;9.15;;;6.03;;
47796;SDS011;33558;50.922;14.068;2023-07-24T16:59:28;8.90;;;6.10;;
47796;SDS011;33558;50.922;14.068;2023-07-24T17:01:56;6.85;;;5.90;;
47796;SDS011;33558;50.922;14.068;2023-07-24T17:04:23;7.13;;;5.90;;
47796;SDS011;33558;50.922;14.068;2023-07-24T17:06:50;7.65;;;5.70;;
47796;SDS011;33558;50.922;14.068;2023-07-24T17:09:16;8.20;;;5.70;;
47796;SDS011;33558;50.922;14.068;2023-07-24T17:11:44;7.32;;;5.70;;
47796;SDS011;33558;50.922;14.068;2023-07-24T17:14:12;6.60;;;5.68;;
47796;SDS011;33558;50.922;14.068;2023-07-24T17:16:39;6.32;;;5.30;;
47796;SDS011;33558;50.922;14.068;2023-07-24T17:19:06;7.47;;;5.70;;
47796;SDS011;33558;50.922;14.068;2023-07-24T17:21:34;6.57;;;5.88;;
47796;SDS011;33558;50.922;14.068;2023-07-24T17:24:01;6.22;;;5.30;;
47796;SDS011;33558;50.922;14.068;2023-07-24T17:26:27;6.13;;;5.15;;
47796;SDS011;33558;50.922;14.068;2023-07-24T17:28:59;6.20;;;5.60;;
47796;SDS011;33558;50.922;14.068;2023-07-24T17:31:28;6.03;;;5.22;;
47796;SDS011;33558;50.922;14.068;2023-07-24T17:33:55;7.22;;;5.13;;
47796;SDS011;33558;50.922;14.068;2023-07-24T17:36:22;6.60;;;5.55;;
47796;SDS011;33558;50.922;14.068;2023-07-24T17:38:49;6.68;;;5.90;;
47796;SDS011;33558;50.922;14.068;2023-07-24T17:41:16;5.68;;;5.00;;
47796;SDS011;33558;50.922;14.068;2023-07-24T17:43:43;6.70;;;5.57;;
47796;SDS011;33558;50.922;14.068;2023-07-24T17:46:13;7.47;;;5.95;;
47796;SDS011;33558;50.922;14.068;2023-07-24T17:48:42;6.85;;;5.50;;
47796;SDS011;33558;50.922;14.068;2023-07-24T17:51:10;6.82;;;5.25;;
47796;SDS011;33558;50.922;14.068;2023-07-24T17:53:36;5.78;;;5.18;;
47796;SDS011;33558;50.922;14.068;2023-07-24T17:56:03;7.35;;;5.55;;
47796;SDS011;33558;50.922;14.068;2023-07-24T17:58:30;6.93;;;4.93;;
47796;SDS011;33558;50.922;14.068;2023-07-24T18:00:57;6.43;;;5.72;;
47796;SDS011;33558;50.922;14.068;2023-07-24T18:03:24;7.65;;;5.60;;
47796;SDS011;33558;50.922;14.068;2023-07-24T18:05:52;6.78;;;5.45;;
47796;SDS011;33558;50.922;14.068;2023-07-24T18:08:20;7.65;;;5.50;;
47796;SDS011;33558;50.922;14.068;2023-07-24T18:10:47;7.45;;;5.20;;
47796;SDS011;33558;50.922;14.068;2023-07-24T18:13:14;6.50;;;5.22;;
47796;SDS011;33558;50.922;14.068;2023-07-24T18:15:40;8.13;;;6.05;;
47796;SDS011;33558;50.922;14.068;2023-07-24T18:18:07;8.60;;;5.30;;
47796;SDS011;33558;50.922;14.068;2023-07-24T18:20:34;9.15;;;6.50;;
47796;SDS011;33558;50.922;14.068;2023-07-24T18:23:02;9.35;;;6.05;;
47796;SDS011;33558;50.922;14.068;2023-07-24T18:25:29;9.75;;;5.97;;
47796;SDS011;33558;50.922;14.068;2023-07-24T18:27:55;7.22;;;5.88;;
47796;SDS011;33558;50.922;14.068;2023-07-24T18:30:22;8.00;;;6.28;;
47796;SDS011;33558;50.922;14.068;2023-07-24T18:32:54;8.93;;;6.03;;
47796;SDS011;33558;50.922;14.068;2023-07-24T18:35:21;8.18;;;5.90;;
47796;SDS011;33558;50.922;14.068;2023-07-24T18:37:48;7.60;;;5.40;;
47796;SDS011;33558;50.922;14.068;2023-07-24T18:40:16;7.05;;;5.72;;
47796;SDS011;33558;50.922;14.068;2023-07-24T18:42:42;8.25;;;5.88;;
47796;SDS011;33558;50.922;14.068;2023-07-24T18:45:09;8.90;;;5.63;;
47796;SDS011;33558;50.922;14.068;2023-07-24T18:47:36;7.40;;;5.90;;
47796;SDS011;33558;50.922;14.068;2023-07-24T18:50:04;8.10;;;6.65;;
47796;SDS011;33558;50.922;14.068;2023-07-24T18:52:31;7.88;;;5.72;;
47796;SDS011;33558;50.922;14.068;2023-07-24T18:54:58;9.50;;;6.00;;
47796;SDS011;33558;50.922;14.068;2023-07-24T18:57:26;8.98;;;5.93;;
47796;SDS011;33558;50.922;14.068;2023-07-24T18:59:53;9.20;;;6.38;;
47796;SDS011;33558;50.922;14.068;2023-07-24T19:02:20;11.77;;;6.60;;
47796;SDS011;33558;50.922;14.068;2023-07-24T19:04:46;8.82;;;6.40;;
47796;SDS011;33558;50.922;14.068;2023-07-24T19:07:13;8.30;;;5.95;;
47796;SDS011;33558;50.922;14.068;2023-07-24T19:09:40;9.52;;;6.43;;
47796;SDS011;33558;50.922;14.068;2023-07-24T19:12:07;9.07;;;6.07;;
47796;SDS011;33558;50.922;14.068;2023-07-24T19:14:35;8.82;;;6.68;;
47796;SDS011;33558;50.922;14.068;2023-07-24T19:17:05;7.38;;;6.22;;
47796;SDS011;33558;50.922;14.068;2023-07-24T19:19:32;7.95;;;6.00;;
47796;SDS011;33558;50.922;14.068;2023-07-24T19:21:58;9.60;;;6.57;;
47796;SDS011;33558;50.922;14.068;2023-07-24T19:24:25;9.30;;;6.65;;
47796;SDS011;33558;50.922;14.068;2023-07-24T19:26:52;8.30;;;5.88;;
47796;SDS011;33558;50.922;14.068;2023-07-24T19:29:18;9.00;;;5.82;;
47796;SDS011;33558;50.922;14.068;2023-07-24T19:31:46;9.52;;;6.35;;
47796;SDS011;33558;50.922;14.068;2023-07-24T19:34:14;10.40;;;6.68;;
47796;SDS011;33558;50.922;14.068;2023-07-24T19:36:41;9.18;;;6.15;;
47796;SDS011;33558;50.922;14.068;2023-07-24T19:39:08;8.05;;;6.20;;
47796;SDS011;33558;50.922;14.068;2023-07-24T19:41:34;8.52;;;6.00;;
47796;SDS011;33558;50.922;14.068;2023-07-24T19:44:01;11.30;;;6.68;;
47796;SDS011;33558;50.922;14.068;2023-07-24T19:46:28;14.13;;;5.25;;
47796;SDS011;33558;50.922;14.068;2023-07-24T19:48:56;15.63;;;5.22;;
47796;SDS011;33558;50.922;14.068;2023-07-24T19:51:23;16.33;;;4.00;;
47796;SDS011;33558;50.922;14.068;2023-07-24T19:53:50;14.10;;;3.67;;
47796;SDS011;33558;50.922;14.068;2023-07-24T19:56:16;9.75;;;3.42;;
47796;SDS011;33558;50.922;14.068;2023-07-24T19:58:43;8.63;;;3.40;;
47796;SDS011;33558;50.922;14.068;2023-07-24T20:01:10;6.93;;;2.65;;
47796;SDS011;33558;50.922;14.068;2023-07-24T20:03:36;6.90;;;2.75;;
47796;SDS011;33558;50.922;14.068;2023-07-24T20:06:04;10.10;;;3.03;;
47796;SDS011;33558;50.922;14.068;2023-07-24T20:08:32;13.93;;;2.53;;
47796;SDS011;33558;50.922;14.068;2023-07-24T20:11:01;8.93;;;2.38;;
47796;SDS011;33558;50.922;14.068;2023-07-24T20:13:30;8.93;;;2.50;;
47796;SDS011;33558;50.922;14.068;2023-07-24T20:15:57;4.38;;;2.42;;
47796;SDS011;33558;50.922;14.068;2023-07-24T20:18:24;7.30;;;2.25;;
47796;SDS011;33558;50.922;14.068;2023-07-24T20:20:51;4.05;;;1.92;;
47796;SDS011;33558;50.922;14.068;2023-07-24T20:23:19;12.35;;;2.70;;
47796;SDS011;33558;50.922;14.068;2023-07-24T20:25:46;5.47;;;2.42;;
47796;SDS011;33558;50.922;14.068;2023-07-24T20:28:16;4.85;;;2.33;;
47796;SDS011;33558;50.922;14.068;2023-07-24T20:30:43;6.07;;;1.92;;
47796;SDS011;33558;50.922;14.068;2023-07-24T20:33:11;5.80;;;2.17;;
47796;SDS011;33558;50.922;14.068;2023-07-24T20:35:38;6.30;;;2.30;;
47796;SDS011;33558;50.922;14.068;2023-07-24T20:38:08;5.82;;;2.03;;
47796;SDS011;33558;50.922;14.068;2023-07-24T20:40:42;4.35;;;2.20;;
47796;SDS011;33558;50.922;14.068;2023-07-24T20:43:19;7.68;;;2.40;;
47796;SDS011;33558;50.922;14.068;2023-07-24T20:45:47;3.30;;;2.15;;
47796;SDS011;33558;50.922;14.068;2023-07-24T20:48:15;5.05;;;2.63;;
47796;SDS011;33558;50.922;14.068;2023-07-24T20:50:42;8.85;;;2.88;;
47796;SDS011;33558;50.922;14.068;2023-07-24T20:53:09;6.45;;;2.28;;
47796;SDS011;33558;50.922;14.068;2023-07-24T20:55:36;5.70;;;2.60;;
47796;SDS011;33558;50.922;14.068;2023-07-24T20:58:04;4.13;;;2.28;;
47796;SDS011;33558;50.922;14.068;2023-07-24T21:00:31;6.60;;;2.30;;
47796;SDS011;33558;50.922;14.068;2023-07-24T21:02:58;5.38;;;2.17;;
47796;SDS011;33558;50.922;14.068;2023-07-24T21:05:25;5.75;;;2.28;;
47796;SDS011;33558;50.922;14.068;2023-07-24T21:07:51;4.25;;;2.55;;
47796;SDS011;33558;50.922;14.068;2023-07-24T21:10:19;5.32;;;2.30;;
47796;SDS011;33558;50.922;14.068;2023-07-24T21:12:46;6.88;;;2.40;;
47796;SDS011;33558;50.922;14.068;2023-07-24T21:15:14;8.32;;;2.65;;
47796;SDS011;33558;50.922;14.068;2023-07-24T21:17:41;5.95;;;2.20;;
47796;SDS011;33558;50.922;14.068;2023-07-24T21:20:08;3.53;;;2.00;;
47796;SDS011;33558;50.922;14.068;2023-07-24T21:22:35;5.43;;;2.17;;
47796;SDS011;33558;50.922;14.068;2023-07-24T21:25:02;4.25;;;2.55;;
47796;SDS011;33558;50.922;14.068;2023-07-24T21:27:29;3.58;;;2.10;;
47796;SDS011;33558;50.922;14.068;2023-07-24T21:29:56;3.25;;;2.25;;
47796;SDS011;33558;50.922;14.068;2023-07-24T21:32:25;5.20;;;2.25;;
47796;SDS011;33558;50.922;14.068;2023-07-24T21:34:51;4.88;;;2.33;;
47796;SDS011;33558;50.922;14.068;2023-07-24T21:37:17;3.10;;;2.30;;
47796;SDS011;33558;50.922;14.068;2023-07-24T21:39:44;4.35;;;2.25;;
47796;SDS011;33558;50.922;14.068;2023-07-24T21:42:11;4.25;;;2.20;;
47796;SDS011;33558;50.922;14.068;2023-07-24T21:44:37;4.88;;;2.30;;
47796;SDS011;33558;50.922;14.068;2023-07-24T21:47:07;3.63;;;2.70;;
47796;SDS011;33558;50.922;14.068;2023-07-24T21:49:35;4.10;;;2.33;;
47796;SDS011;33558;50.922;14.068;2023-07-24T21:52:02;3.85;;;2.33;;
47796;SDS011;33558;50.922;14.068;2023-07-24T21:54:28;4.63;;;2.63;;
47796;SDS011;33558;50.922;14.068;2023-07-24T21:56:55;3.05;;;2.22;;
47796;SDS011;33558;50.922;14.068;2023-07-24T21:59:22;3.08;;;2.20;;
47796;SDS011;33558;50.922;14.068;2023-07-24T22:01:49;2.65;;;1.95;;
47796;SDS011;33558;50.922;14.068;2023-07-24T22:04:15;3.72;;;2.25;;
47796;SDS011;33558;50.922;14.068;2023-07-24T22:06:43;3.47;;;2.40;;
47796;SDS011;33558;50.922;14.068;2023-07-24T22:09:10;3.78;;;2.65;;
47796;SDS011;33558;50.922;14.068;2023-07-24T22:11:37;5.38;;;2.85;;
47796;SDS011;33558;50.922;14.068;2023-07-24T22:14:03;3.47;;;2.58;;
47796;SDS011;33558;50.922;14.068;2023-07-24T22:16:30;3.10;;;2.10;;
47796;SDS011;33558;50.922;14.068;2023-07-24T22:18:57;3.40;;;2.50;;
47796;SDS011;33558;50.922;14.068;2023-07-24T22:21:24;5.30;;;2.75;;
47796;SDS011;33558;50.922;14.068;2023-07-24T22:23:52;4.60;;;2.55;;
47796;SDS011;33558;50.922;14.068;2023-07-24T22:26:19;7.32;;;2.33;;
47796;SDS011;33558;50.922;14.068;2023-07-24T22:28:46;4.18;;;2.30;;
47796;SDS011;33558;50.922;14.068;2023-07-24T22:31:13;3.83;;;2.53;;
47796;SDS011;33558;50.922;14.068;2023-07-24T22:33:39;4.13;;;2.58;;
47796;SDS011;33558;50.922;14.068;2023-07-24T22:36:06;4.13;;;2.50;;
47796;SDS011;33558;50.922;14.068;2023-07-24T22:38:33;4.55;;;2.70;;
47796;SDS011;33558;50.922;14.068;2023-07-24T22:41:08;4.35;;;2.78;;
47796;SDS011;33558;50.922;14.068;2023-07-24T22:43:36;3.60;;;2.67;;
47796;SDS011;33558;50.922;14.068;2023-07-24T22:46:02;3.13;;;2.60;;
47796;SDS011;33558;50.922;14.068;2023-07-24T22:48:29;3.95;;;2.50;;
47796;SDS011;33558;50.922;14.068;2023-07-24T22:50:56;6.25;;;2.95;;
47796;SDS011;33558;50.922;14.068;2023-07-24T22:53:22;4.38;;;2.75;;
47796;SDS011;33558;50.922;14.068;2023-07-24T22:55:49;4.28;;;2.60;;
47796;SDS011;33558;50.922;14.068;2023-07-24T22:58:17;6.40;;;2.78;;
47796;SDS011;33558;50.922;14.068;2023-07-24T23:00:44;3.47;;;2.75;;
47796;SDS011;33558;50.922;14.068;2023-07-24T23:03:10;4.38;;;2.70;;
47796;SDS011;33558;50.922;14.068;2023-07-24T23:05:37;4.90;;;2.40;;
47796;SDS011;33558;50.922;14.068;2023-07-24T23:08:04;4.13;;;2.72;;
47796;SDS011;33558;50.922;14.068;2023-07-24T23:10:31;3.83;;;2.70;;
47796;SDS011;33558;50.922;14.068;2023-07-24T23:12:57;4.72;;;2.70;;
47796;SDS011;33558;50.922;14.068;2023-07-24T23:15:26;5.05;;;3.70;;
47796;SDS011;33558;50.922;14.068;2023-07-24T23:17:52;5.60;;;2.92;;
47796;SDS011;33558;50.922;14.068;2023-07-24T23:20:19;4.30;;;2.97;;
47796;SDS011;33558;50.922;14.068;2023-07-24T23:22:46;4.07;;;2.90;;
47796;SDS011;33558;50.922;14.068;2023-07-24T23:25:12;3.60;;;2.60;;
47796;SDS011;33558;50.922;14.068;2023-07-24T23:27:39;3.53;;;2.70;;
47796;SDS011;33558;50.922;14.068;2023-07-24T23:30:06;3.92;;;2.80;;
47796;SDS011;33558;50.922;14.068;2023-07-24T23:32:35;4.60;;;3.50;;
47796;SDS011;33558;50.922;14.068;2023-07-24T23:35:02;3.50;;;2.83;;
47796;SDS011;33558;50.922;14.068;2023-07-24T23:37:29;4.68;;;3.22;;
47796;SDS011;33558;50.922;14.068;2023-07-24T23:39:56;4.78;;;3.33;;
47796;SDS011;33558;50.922;14.068;2023-07-24T23:42:23;3.70;;;2.63;;
47796;SDS011;33558;50.922;14.068;2023-07-24T23:44:49;3.42;;;2.72;;
47796;SDS011;33558;50.922;14.068;2023-07-24T23:47:16;5.43;;;2.85;;
47796;SDS011;33558;50.922;14.068;2023-07-24T23:49:45;5.68;;;3.28;;
47796;SDS011;33558;50.922;14.068;2023-07-24T23:52:12;3.53;;;2.67;;
47796;SDS011;33558;50.922;14.068;2023-07-24T23:54:38;4.53;;;2.78;;
47796;SDS011;33558;50.922;14.068;2023-07-24T23:57:05;4.32;;;2.80;;
47796;SDS011;33558;50.922;14.068;2023-07-24T23:59:32;3.58;;;2.78;;
